Time;durP1;ratioP1;P1;durP2;ratioP2;P2;SDS_P1;SDS_P2;PMS_P1;PMS_P2;Temp;Humidity;BMP_temperature;BMP_pressure;BME280_temperature;BME280_humidity;BME280_pressure;Samples;Min_cycle;Max_cycle;Signal;HPM_P1;HPM_P2
2022/06/24 00:00:50;;;;;;;4.43;1.90;;;;;;;20.44;100.00;95842.84;5033055;28;101825;-64
2022/06/24 00:03:18;;;;;;;3.57;1.80;;;;;;;20.32;100.00;95842.75;5031963;28;103195;-64
2022/06/24 00:05:48;;;;;;;8.00;1.87;;;;;;;20.27;100.00;95848.34;5031619;28;102126;-64
2022/06/24 00:08:15;;;;;;;4.70;1.67;;;;;;;20.27;100.00;95851.03;5032677;27;102585;-64
2022/06/24 00:10:43;;;;;;;3.13;1.70;;;;;;;20.16;100.00;95858.69;5031972;28;103255;-64
2022/06/24 00:13:10;;;;;;;4.10;1.50;;;;;;;20.12;100.00;95862.38;5031243;28;101996;-64
2022/06/24 00:15:39;;;;;;;3.03;1.77;;;;;;;20.10;100.00;95872.69;5031367;28;106480;-64
2022/06/24 00:18:14;;;;;;;3.03;1.90;;;;;;;20.07;100.00;95884.94;5032254;28;102567;-64
2022/06/24 00:20:45;;;;;;;3.17;2.00;;;;;;;19.99;100.00;95893.03;5034778;28;101831;-64
2022/06/24 00:23:13;;;;;;;4.43;1.60;;;;;;;20.02;100.00;95901.28;5032097;28;102591;-64
2022/06/24 00:25:41;;;;;;;3.33;1.60;;;;;;;19.99;100.00;95901.13;5032364;27;101900;-64
2022/06/24 00:28:09;;;;;;;4.47;1.70;;;;;;;19.94;100.00;95896.66;5032650;28;102888;-64
2022/06/24 00:30:39;;;;;;;2.80;1.60;;;;;;;19.96;100.00;95909.84;5030395;27;105061;-64
2022/06/24 00:33:12;;;;;;;4.07;1.43;;;;;;;19.95;100.00;95913.66;5031244;28;101964;-64
2022/06/24 00:35:41;;;;;;;3.83;1.60;;;;;;;19.96;100.00;95905.25;5032651;28;102489;-64
2022/06/24 00:38:26;;;;;;;4.37;1.30;;;;;;;19.94;100.00;95901.28;5031584;27;102583;-64
2022/06/24 00:40:56;;;;;;;2.90;1.20;;;;;;;19.95;100.00;95892.84;5032334;28;102114;-64
2022/06/24 00:43:28;;;;;;;3.53;1.67;;;;;;;19.95;100.00;95900.16;5034758;27;103535;-64
2022/06/24 00:46:05;;;;;;;3.77;1.40;;;;;;;19.87;100.00;95896.38;5032537;27;101686;-64
2022/06/24 00:48:38;;;;;;;3.43;1.30;;;;;;;19.91;100.00;95905.44;5032148;28;102357;-64
2022/06/24 00:51:06;;;;;;;2.30;1.20;;;;;;;19.91;100.00;95904.63;5031698;28;102700;-64
2022/06/24 00:53:42;;;;;;;3.07;1.33;;;;;;;19.84;100.00;95901.63;5032550;27;101838;-64
2022/06/24 00:56:12;;;;;;;1.90;1.10;;;;;;;19.82;100.00;95898.44;5032376;28;102545;-64
2022/06/24 00:58:39;;;;;;;1.30;0.90;;;;;;;19.82;100.00;95899.22;5030173;28;106750;-64
2022/06/24 01:01:09;;;;;;;1.07;0.90;;;;;;;19.78;100.00;95906.38;5031964;28;101818;-64
2022/06/24 01:03:40;;;;;;;3.40;1.20;;;;;;;19.79;100.00;95902.56;5031696;28;102728;-64
2022/06/24 01:06:08;;;;;;;1.20;0.93;;;;;;;19.76;100.00;95900.53;5033627;28;103921;-64
2022/06/24 01:08:35;;;;;;;1.87;0.80;;;;;;;19.75;100.00;95896.25;5031595;28;102392;-64
2022/06/24 01:11:02;;;;;;;1.80;1.00;;;;;;;19.75;100.00;95900.84;5031521;27;102493;-64
2022/06/24 01:13:30;;;;;;;1.80;1.00;;;;;;;19.67;100.00;95907.81;5031715;27;101813;-64
2022/06/24 01:15:58;;;;;;;2.07;1.10;;;;;;;19.73;100.00;95906.53;5031761;28;102332;-64
2022/06/24 01:18:26;;;;;;;3.30;1.43;;;;;;;19.70;100.00;95899.09;5031451;28;102698;-64
2022/06/24 01:20:54;;;;;;;2.53;1.00;;;;;;;19.70;100.00;95904.50;5032104;28;101680;-64
2022/06/24 01:23:26;;;;;;;2.20;1.40;;;;;;;19.68;100.00;95909.41;5031838;28;102539;-64
2022/06/24 01:25:54;;;;;;;1.97;1.00;;;;;;;19.55;100.00;95907.69;5031000;28;102754;-64
2022/06/24 01:28:21;;;;;;;2.00;0.90;;;;;;;19.57;100.00;95899.28;5033594;28;102064;-64
2022/06/24 01:30:48;;;;;;;2.13;0.93;;;;;;;19.53;100.00;95901.00;5031050;27;102525;-64
2022/06/24 01:33:15;;;;;;;1.53;0.90;;;;;;;19.50;100.00;95904.34;5030320;28;101899;-64
2022/06/24 01:35:42;;;;;;;2.97;1.13;;;;;;;19.55;100.00;95902.28;5030117;28;103540;-64
2022/06/24 01:38:09;;;;;;;3.53;1.10;;;;;;;19.54;100.00;95899.91;5031084;28;102549;-64
2022/06/24 01:40:38;;;;;;;1.10;0.80;;;;;;;19.52;100.00;95891.34;5031517;28;101872;-64
2022/06/24 01:43:05;;;;;;;1.67;1.10;;;;;;;19.43;100.00;95885.16;5029098;28;105724;-64
2022/06/24 01:45:32;;;;;;;1.37;0.80;;;;;;;19.40;100.00;95891.19;5030985;28;102777;-64
2022/06/24 01:48:00;;;;;;;3.17;0.97;;;;;;;19.33;100.00;95886.25;5033301;28;101903;-64
2022/06/24 01:50:26;;;;;;;2.03;0.87;;;;;;;19.36;100.00;95885.66;5030825;28;103086;-64
2022/06/24 01:52:53;;;;;;;2.23;1.00;;;;;;;19.40;100.00;95896.59;5030040;28;102049;-64
2022/06/24 01:55:21;;;;;;;2.37;0.90;;;;;;;19.44;100.00;95889.41;5031273;27;102354;-64
2022/06/24 01:57:49;;;;;;;2.07;0.90;;;;;;;19.39;100.00;95886.88;5030818;28;102564;-64
2022/06/24 02:00:17;;;;;;;1.10;0.80;;;;;;;19.41;100.00;95882.75;5029708;28;101923;-64
2022/06/24 02:02:45;;;;;;;1.50;1.27;;;;;;;19.48;100.00;95895.78;5030712;27;102371;-64
2022/06/24 02:05:12;;;;;;;2.63;1.10;;;;;;;19.41;100.00;95892.78;5029028;28;104340;-64
2022/06/24 02:07:40;;;;;;;2.80;0.70;;;;;;;19.42;100.00;95884.38;5031107;27;101941;-64
2022/06/24 02:15:38;;;;;;;2.07;0.77;;;;;;;19.47;100.00;95878.00;5031130;27;102307;-64
2022/06/24 02:18:06;;;;;;;3.63;1.00;;;;;;;19.53;100.00;95879.44;5030330;28;102817;-64
2022/06/24 02:20:33;;;;;;;4.57;1.50;;;;;;;19.45;100.00;95877.56;5030459;28;101961;-64
2022/06/24 02:23:00;;;;;;;2.00;0.93;;;;;;;19.51;100.00;95887.06;5030840;28;102428;-64
2022/06/24 02:25:27;;;;;;;1.17;0.90;;;;;;;19.50;100.00;95880.88;5028893;28;105855;-64
2022/06/24 02:27:56;;;;;;;1.83;0.90;;;;;;;19.56;100.00;95886.91;5031117;27;101886;-64
2022/06/24 02:30:23;;;;;;;1.93;0.80;;;;;;;19.50;100.00;95898.97;5030419;27;103929;-64
2022/06/24 02:32:50;;;;;;;2.83;1.00;;;;;;;19.39;100.00;95887.69;5033639;28;102689;-64
2022/06/24 02:35:18;;;;;;;3.13;0.80;;;;;;;19.30;100.00;95886.88;5030389;28;102392;-64
2022/06/24 02:37:45;;;;;;;1.07;0.80;;;;;;;19.28;100.00;95889.13;5030322;28;103098;-64
2022/06/24 02:43:13;;;;;;;3.00;1.27;;;;;;;19.29;100.00;95884.53;5017115;27;102503;-64
2022/06/24 02:45:41;;;;;;;4.00;0.90;;;;;;;19.34;100.00;95881.69;5029877;27;103200;-64
2022/06/24 02:48:09;;;;;;;0.80;0.80;;;;;;;19.17;100.00;95876.22;5029210;28;102093;-64
2022/06/24 02:50:39;;;;;;;2.53;0.60;;;;;;;19.08;100.00;95878.13;5029189;28;105480;-64
2022/06/24 02:53:06;;;;;;;0.83;0.80;;;;;;;19.05;100.00;95876.06;5029623;27;103318;-64
2022/06/24 02:55:34;;;;;;;1.50;0.80;;;;;;;19.19;100.00;95874.03;5033999;28;102121;-64
2022/06/24 02:58:01;;;;;;;1.10;0.80;;;;;;;19.08;100.00;95875.44;5029789;27;102565;-64
2022/06/24 03:00:30;;;;;;;1.27;1.03;;;;;;;19.13;100.00;95877.97;5030440;27;102110;-64
2022/06/24 03:02:57;;;;;;;1.17;1.07;;;;;;;19.24;100.00;95882.00;5028754;28;104423;-64
2022/06/24 03:05:24;;;;;;;2.30;1.20;;;;;;;19.34;100.00;95876.28;5029695;27;103126;-64
2022/06/24 03:07:52;;;;;;;1.67;1.00;;;;;;;19.31;100.00;95877.72;5030444;28;101946;-64
2022/06/24 03:10:19;;;;;;;0.90;0.90;;;;;;;19.38;100.00;95883.41;5029963;28;102914;-64
2022/06/24 03:12:46;;;;;;;1.27;0.80;;;;;;;19.42;100.00;95884.38;5029558;27;103161;-64
2022/06/24 03:15:13;;;;;;;2.50;0.83;;;;;;;19.48;100.00;95882.28;5028923;28;101921;-64
2022/06/24 03:17:42;;;;;;;2.93;0.77;;;;;;;19.47;100.00;95888.81;5031750;28;103696;-64
2022/06/24 03:20:09;;;;;;;1.67;0.90;;;;;;;19.46;100.00;95890.69;5028869;28;101960;-64
2022/06/24 03:22:38;;;;;;;1.43;0.90;;;;;;;19.57;100.00;95891.19;5028352;28;103825;-64
2022/06/24 03:25:06;;;;;;;2.70;0.80;;;;;;;19.31;100.00;95898.47;5029426;28;102548;-64
2022/06/24 03:27:33;;;;;;;2.00;0.70;;;;;;;19.30;100.00;95896.91;5028704;28;102286;-64
2022/06/24 03:30:00;;;;;;;3.17;0.53;;;;;;;19.25;100.00;95897.03;5029548;28;102812;-64
2022/06/24 03:32:28;;;;;;;1.70;0.80;;;;;;;19.25;100.00;95902.44;5029341;28;102682;-64
2022/06/24 03:34:57;;;;;;;1.43;0.70;;;;;;;19.33;100.00;95899.75;5028445;28;101894;-64
2022/06/24 03:37:24;;;;;;;0.97;0.70;;;;;;;19.46;100.00;95906.09;5029943;28;101717;-64
2022/06/24 03:39:51;;;;;;;2.03;0.70;;;;;;;19.46;100.00;95890.69;5032602;27;102606;-64
2022/06/24 03:42:18;;;;;;;1.03;0.70;;;;;;;19.60;100.00;95901.31;5029011;28;102317;-64
2022/06/24 03:45:22;;;;;;;2.27;0.80;;;;;;;19.58;100.00;95898.16;5029040;28;103252;-64
2022/06/24 03:47:49;;;;;;;2.63;0.90;;;;;;;19.64;100.00;95896.88;5028783;28;101880;-64
2022/06/24 03:50:32;;;;;;;2.27;1.07;;;;;;;19.77;100.00;95901.28;5028216;28;106602;-64
2022/06/24 03:52:59;;;;;;;2.07;1.20;;;;;;;19.90;100.00;95900.34;5029716;27;102546;-64
2022/06/24 03:55:34;;;;;;;1.50;0.73;;;;;;;19.80;100.00;95906.06;5028547;28;102055;-64
2022/06/24 03:58:02;;;;;;;0.80;0.80;;;;;;;19.96;100.00;95904.44;5028450;28;105868;-64
2022/06/24 04:00:29;;;;;;;2.23;0.90;;;;;;;19.96;100.00;95905.25;5032771;28;102696;-64
2022/06/24 04:02:56;;;;;;;1.77;1.07;;;;;;;20.11;100.00;95909.38;5027370;28;105763;-64
2022/06/24 04:05:23;;;;;;;1.00;0.90;;;;;;;20.23;100.00;95901.41;5030913;27;101774;-64
2022/06/24 04:07:52;;;;;;;0.87;0.87;;;;;;;20.27;100.00;95899.66;5033190;28;101710;-64
2022/06/24 04:10:19;;;;;;;1.90;1.10;;;;;;;20.33;100.00;95903.75;5032874;28;102437;-64
2022/06/24 04:12:47;;;;;;;0.80;0.80;;;;;;;20.31;100.00;95895.16;5032441;28;102653;-64
2022/06/24 04:15:28;;;;;;;3.23;1.20;;;;;;;20.37;100.00;95900.06;5033159;28;101868;-64
2022/06/24 04:17:55;;;;;;;1.00;0.73;;;;;;;20.35;100.00;95896.09;5033055;28;102338;-64
2022/06/24 04:20:22;;;;;;;1.13;0.83;;;;;;;20.33;100.00;95903.75;5032029;28;102565;-64
2022/06/24 04:22:51;;;;;;;1.97;1.10;;;;;;;20.35;100.00;95901.50;5034963;28;102009;-64
2022/06/24 04:25:19;;;;;;;1.80;1.00;;;;;;;20.37;100.00;95904.66;5031877;28;101836;-64
2022/06/24 04:27:46;;;;;;;1.40;0.80;;;;;;;20.29;100.00;95897.41;5032905;28;101955;-64
2022/06/24 04:30:14;;;;;;;2.30;0.90;;;;;;;20.35;100.00;95896.91;5032446;27;102528;-64
2022/06/24 04:32:41;;;;;;;2.10;1.03;;;;;;;20.40;100.00;95904.03;5032005;28;102845;-64
2022/06/24 04:35:09;;;;;;;2.87;0.87;;;;;;;20.35;100.00;95902.31;5032529;28;101844;-64
2022/06/24 04:37:37;;;;;;;1.83;1.00;;;;;;;20.39;100.00;95902.44;5032486;28;102620;-64
2022/06/24 04:40:09;;;;;;;2.10;0.97;;;;;;;20.42;100.00;95896.38;5030375;28;103916;-64
2022/06/24 04:42:36;;;;;;;1.30;0.80;;;;;;;20.48;100.00;95911.31;5031182;28;101917;-64
2022/06/24 04:45:04;;;;;;;1.80;0.87;;;;;;;20.49;100.00;95915.59;5033688;28;103637;-64
2022/06/24 04:47:31;;;;;;;2.70;0.80;;;;;;;20.50;100.00;95911.78;5032619;28;101723;-64
2022/06/24 04:49:58;;;;;;;1.63;1.10;;;;;;;20.46;100.00;95903.53;5030767;28;103703;-64
2022/06/24 04:52:25;;;;;;;1.77;0.80;;;;;;;20.52;100.00;95907.66;5031731;27;102533;-64
2022/06/24 04:54:53;;;;;;;1.47;0.80;;;;;;;20.56;100.00;95908.59;5030738;28;101772;-64
2022/06/24 04:57:21;;;;;;;1.53;1.07;;;;;;;20.60;100.00;95909.50;5031190;28;105182;-64
2022/06/24 04:59:48;;;;;;;1.03;0.80;;;;;;;20.64;100.00;95913.16;5030957;27;104141;-64
2022/06/24 05:02:15;;;;;;;1.40;0.90;;;;;;;20.77;100.00;95912.13;5031385;28;102144;-63
2022/06/24 05:04:42;;;;;;;1.47;1.00;;;;;;;20.93;100.00;95907.00;5032090;28;102508;-67
2022/06/24 05:07:10;;;;;;;2.20;1.10;;;;;;;21.23;100.00;95911.25;5034554;27;102725;-63
2022/06/24 05:09:37;;;;;;;2.97;1.30;;;;;;;21.39;100.00;95912.25;5031954;28;102343;-63
2022/06/24 05:12:05;;;;;;;3.50;1.27;;;;;;;21.56;100.00;95909.41;5031367;28;102545;-63
2022/06/24 05:14:34;;;;;;;3.23;1.13;;;;;;;21.55;100.00;95907.81;5030065;28;101958;-63
2022/06/24 05:17:01;;;;;;;3.93;1.60;;;;;;;21.45;100.00;95903.59;5030815;27;102421;-63
2022/06/24 05:19:28;;;;;;;2.17;1.30;;;;;;;21.61;100.00;95912.72;5031498;28;102602;-63
2022/06/24 05:21:56;;;;;;;3.50;1.30;;;;;;;21.38;100.00;95908.75;5031577;28;101711;-63
2022/06/24 05:24:23;;;;;;;5.27;1.30;;;;;;;21.64;100.00;95920.16;5031622;28;102997;-63
2022/06/24 05:26:50;;;;;;;2.47;0.90;;;;;;;20.98;100.00;95912.22;5029927;28;103880;-63
2022/06/24 05:29:18;;;;;;;3.60;1.00;;;;;;;20.78;100.00;95921.84;5035256;27;101694;-63
2022/06/24 05:31:47;;;;;;;2.10;1.10;;;;;;;20.60;100.00;95925.72;5030984;28;102591;-63
2022/06/24 05:34:15;;;;;;;1.97;1.10;;;;;;;20.13;100.00;95929.53;5031716;28;101754;-63
2022/06/24 05:36:43;;;;;;;3.97;1.10;;;;;;;20.18;100.00;95925.88;5029973;28;103632;-63
2022/06/24 05:39:11;;;;;;;2.27;1.00;;;;;;;20.27;100.00;95918.53;5031017;28;102832;-63
2022/06/24 05:41:40;;;;;;;1.43;0.87;;;;;;;20.61;100.00;95921.13;5030309;28;102010;-63
2022/06/24 05:44:08;;;;;;;1.70;0.90;;;;;;;20.50;100.00;95928.00;5031150;27;102292;-63
2022/06/24 05:46:35;;;;;;;2.00;0.80;;;;;;;20.29;100.00;95921.69;5029311;28;105127;-63
2022/06/24 05:49:04;;;;;;;3.77;0.90;;;;;;;20.29;100.00;95908.19;5030054;28;101837;-63
2022/06/24 05:51:34;;;;;;;2.33;1.00;;;;;;;20.45;100.00;95911.97;5032634;28;105084;-63
2022/06/24 05:56:47;;;;;;;1.50;0.70;;;;;;;20.23;100.00;95913.00;5031163;27;102783;-63
2022/06/24 05:59:14;;;;;;;3.50;0.90;;;;;;;20.07;100.00;95916.53;5030441;28;102708;-63
2022/06/24 06:01:42;;;;;;;1.70;1.20;;;;;;;20.58;100.00;95910.94;5030172;28;101976;-63
2022/06/24 06:04:11;;;;;;;1.77;1.00;;;;;;;21.11;100.00;95897.66;5031539;28;102341;-63
2022/06/24 06:06:38;;;;;;;1.33;0.90;;;;;;;20.89;100.00;95895.25;5030278;28;103131;-63
2022/06/24 06:09:05;;;;;;;1.90;1.03;;;;;;;20.83;100.00;95899.22;5030873;27;101959;-63
2022/06/24 06:11:33;;;;;;;3.20;1.40;;;;;;;20.71;100.00;95904.53;5033592;28;102464;-63
2022/06/24 06:14:00;;;;;;;1.80;1.10;;;;;;;21.00;100.00;95883.75;5030967;28;101873;-63
2022/06/24 06:16:27;;;;;;;2.93;1.10;;;;;;;21.52;100.00;95887.63;5031035;28;102354;-63
2022/06/24 06:18:54;;;;;;;1.83;0.93;;;;;;;21.68;100.00;95882.44;5029041;28;106824;-63
2022/06/24 06:21:23;;;;;;;3.80;1.10;;;;;;;21.66;100.00;95884.63;5030738;28;102162;-63
2022/06/24 06:23:51;;;;;;;1.57;1.10;;;;;;;21.68;100.00;95885.16;5029610;28;104976;-63
2022/06/24 06:26:18;;;;;;;1.90;0.83;;;;;;;21.89;100.00;95880.47;5030207;28;102665;-63
2022/06/24 06:28:45;;;;;;;1.97;1.10;;;;;;;22.18;100.00;95872.22;5030655;27;101737;-63
2022/06/24 06:31:13;;;;;;;1.03;0.90;;;;;;;22.14;100.00;95865.88;5030510;27;102707;-63
2022/06/24 06:33:40;;;;;;;1.53;0.90;;;;;;;22.28;100.00;95872.56;5033457;28;103202;-63
2022/06/24 06:36:09;;;;;;;1.50;1.07;;;;;;;22.38;100.00;95865.91;5030377;28;102408;-63
2022/06/24 06:38:39;;;;;;;2.43;1.10;;;;;;;22.36;100.00;95874.38;5029990;28;103658;-63
2022/06/24 06:41:06;;;;;;;1.27;0.73;;;;;;;22.34;100.00;95881.28;5029293;28;102180;-63
2022/06/24 06:43:33;;;;;;;1.30;0.80;;;;;;;22.45;100.00;95883.22;5030634;28;102368;-63
2022/06/24 06:46:00;;;;;;;1.30;0.77;;;;;;;22.44;100.00;95881.63;5029936;27;103010;-63
2022/06/24 06:48:28;;;;;;;4.33;1.10;;;;;;;22.33;100.00;95880.47;5030213;27;101844;-63
2022/06/24 06:50:57;;;;;;;1.50;0.67;;;;;;;22.47;100.00;95886.41;5030444;27;102263;-63
2022/06/24 06:53:24;;;;;;;0.80;0.70;;;;;;;22.55;100.00;95882.00;5029736;28;103197;-63
2022/06/24 06:55:53;;;;;;;0.80;0.80;;;;;;;22.56;100.00;95867.31;5032696;28;102181;-63
2022/06/24 06:58:21;;;;;;;1.07;0.77;;;;;;;22.41;100.00;95876.88;5029998;28;103256;-63
2022/06/24 07:00:49;;;;;;;1.93;0.73;;;;;;;22.45;100.00;95879.72;5028804;28;101968;-63
2022/06/24 07:03:16;;;;;;;1.13;1.00;;;;;;;22.27;100.00;95881.81;5028486;28;105459;-63
2022/06/24 07:05:44;;;;;;;1.50;0.67;;;;;;;22.54;100.00;95878.50;5029488;28;103231;-63
2022/06/24 07:08:11;;;;;;;1.20;0.83;;;;;;;22.75;100.00;95881.88;5030595;28;102160;-63
2022/06/24 07:10:39;;;;;;;1.60;1.00;;;;;;;23.05;100.00;95869.66;5029772;27;102251;-63
2022/06/24 07:13:08;;;;;;;1.50;0.90;;;;;;;23.24;100.00;95874.50;5029607;28;101733;-63
2022/06/24 07:15:35;;;;;;;1.03;0.80;;;;;;;23.30;100.00;95875.84;5030082;28;101874;-63
2022/06/24 07:18:04;;;;;;;1.13;0.97;;;;;;;23.37;100.00;95874.13;5033031;28;102366;-63
2022/06/24 07:20:32;;;;;;;2.37;0.70;;;;;;;23.33;100.00;95875.19;5029861;28;101818;-63
2022/06/24 07:22:59;;;;;;;1.67;0.80;;;;;;;23.27;100.00;95871.13;5029955;27;102348;-63
2022/06/24 07:25:26;;;;;;;1.93;0.60;;;;;;;23.45;100.00;95865.09;5029102;28;102789;-63
2022/06/24 07:27:53;;;;;;;1.80;0.80;;;;;;;23.53;100.00;95868.75;5030213;28;101726;-63
2022/06/24 07:30:22;;;;;;;0.87;0.70;;;;;;;23.59;100.00;95859.25;5029886;28;102976;-63
2022/06/24 07:32:49;;;;;;;1.30;0.60;;;;;;;23.72;100.00;95860.78;5029373;28;102851;-63
2022/06/24 07:35:16;;;;;;;3.37;0.80;;;;;;;23.85;100.00;95849.53;5029815;28;101846;-63
2022/06/24 07:37:43;;;;;;;1.27;0.80;;;;;;;23.66;100.00;95848.59;5029749;28;102558;-63
2022/06/24 07:40:11;;;;;;;3.13;1.10;;;;;;;23.53;100.00;95849.75;5034132;27;102545;-63
2022/06/24 07:42:39;;;;;;;2.27;0.97;;;;;;;23.61;100.00;95846.94;5033207;28;102853;-63
2022/06/24 07:45:08;;;;;;;2.17;0.80;;;;;;;23.73;100.00;95846.88;5032777;28;102729;-63
2022/06/24 07:47:37;;;;;;;4.03;0.90;;;;;;;23.83;100.00;95842.84;5031906;28;101778;-63
2022/06/24 07:50:04;;;;;;;1.30;0.70;;;;;;;24.41;100.00;95828.50;5031963;28;106472;-63
2022/06/24 07:52:32;;;;;;;2.17;0.60;;;;;;;24.77;100.00;95830.94;5031040;28;104468;-63
2022/06/24 07:57:43;;;;;;;2.13;0.90;;;;;;;25.41;100.00;95833.94;5033070;27;102813;-63
2022/06/24 08:00:11;;;;;;;3.70;0.80;;;;;;;25.41;100.00;95834.75;5032461;28;102677;-63
2022/06/24 08:02:43;;;;;;;1.07;0.73;;;;;;;25.57;100.00;95837.41;5036079;27;101821;-63
2022/06/24 08:05:10;;;;;;;1.23;0.80;;;;;;;25.92;100.00;95841.63;5032290;27;102666;-63
2022/06/24 08:07:37;;;;;;;3.23;0.80;;;;;;;25.90;100.00;95829.47;5032980;28;102190;-63
2022/06/24 08:10:05;;;;;;;1.97;0.70;;;;;;;25.77;100.00;95825.34;5032713;27;104485;-63
2022/06/24 08:12:32;;;;;;;2.50;0.90;;;;;;;25.73;100.00;95825.25;5032216;28;102827;-63
2022/06/24 08:14:59;;;;;;;2.13;0.90;;;;;;;25.67;100.00;95823.97;5031699;28;101900;-63
2022/06/24 08:17:25;;;;;;;1.23;0.80;;;;;;;25.65;100.00;95829.00;5031671;28;102620;-63
2022/06/24 08:19:55;;;;;;;2.50;0.87;;;;;;;25.65;100.00;95820.03;5030897;28;105448;-63
2022/06/24 08:22:22;;;;;;;1.33;0.77;;;;;;;25.57;100.00;95819.13;5035850;28;101816;-63
2022/06/24 08:24:49;;;;;;;2.30;1.00;;;;;;;25.67;100.00;95820.47;5030823;28;105840;-63
2022/06/24 08:27:17;;;;;;;2.87;0.90;;;;;;;25.33;100.00;95822.13;5031308;28;102066;-63
2022/06/24 08:29:44;;;;;;;2.60;0.97;;;;;;;24.88;100.00;95816.44;5032745;28;102144;-63
2022/06/24 08:32:11;;;;;;;2.07;1.00;;;;;;;25.04;100.00;95817.19;5031371;28;103345;-63
2022/06/24 08:34:38;;;;;;;1.70;1.13;;;;;;;25.03;100.00;95802.03;5032157;28;101973;-63
2022/06/24 08:37:07;;;;;;;5.27;1.13;;;;;;;24.94;100.00;95815.03;5031853;28;102913;-63
2022/06/24 08:39:34;;;;;;;3.20;1.10;;;;;;;24.82;100.00;95806.19;5031601;28;102593;-63
2022/06/24 08:42:03;;;;;;;4.40;1.00;;;;;;;24.52;100.00;95818.66;5030982;28;102019;-63
2022/06/24 08:44:31;;;;;;;1.60;1.00;;;;;;;24.89;100.00;95804.41;5033117;28;105760;-63
2022/06/24 08:46:58;;;;;;;3.50;1.30;;;;;;;25.35;100.00;95808.16;5032445;28;101733;-63
2022/06/24 08:49:27;;;;;;;3.17;1.33;;;;;;;25.15;100.00;95809.25;5032556;28;102907;-63
2022/06/24 08:51:59;;;;;;;5.03;1.20;;;;;;;25.51;100.00;95806.16;5029978;28;105372;-63
2022/06/24 08:54:30;;;;;;;4.93;1.30;;;;;;;25.85;100.00;95799.81;5032480;28;102180;-63
2022/06/24 08:56:58;;;;;;;1.87;1.27;;;;;;;25.92;100.00;95794.50;5030923;28;103559;-63
2022/06/24 08:59:28;;;;;;;4.10;1.10;;;;;;;26.18;100.00;95791.88;5029901;28;105880;-63
2022/06/24 09:01:55;;;;;;;1.70;1.00;;;;;;;26.28;100.00;95785.81;5030111;28;101951;-63
2022/06/24 09:04:23;;;;;;;2.73;1.10;;;;;;;26.46;100.00;95787.69;5032262;27;102407;-63
2022/06/24 09:06:50;;;;;;;3.97;1.07;;;;;;;26.41;100.00;95787.19;5034686;27;102644;-63
2022/06/24 09:09:23;;;;;;;2.90;1.10;;;;;;;26.68;99.40;95791.53;5030504;28;104083;-63
2022/06/24 09:11:56;;;;;;;2.93;1.07;;;;;;;26.65;100.00;95790.31;5029758;28;105866;-63
2022/06/24 09:14:23;;;;;;;2.50;1.17;;;;;;;27.24;98.64;95789.66;5032094;28;101778;-63
2022/06/24 09:16:50;;;;;;;4.23;1.17;;;;;;;27.39;92.72;95785.91;5031893;28;102378;-63
2022/06/24 09:19:18;;;;;;;3.23;1.10;;;;;;;26.58;95.02;95775.78;5031209;28;102588;-64
2022/06/24 09:21:46;;;;;;;4.90;1.57;;;;;;;26.10;97.26;95776.56;5032024;28;101676;-64
2022/06/24 09:24:15;;;;;;;5.70;1.40;;;;;;;25.64;100.00;95772.16;5031438;28;102563;-64
2022/06/24 09:26:43;;;;;;;6.30;1.13;;;;;;;25.13;100.00;95773.44;5029847;28;103983;-64
2022/06/24 09:29:14;;;;;;;3.47;1.47;;;;;;;25.51;100.00;95771.53;5033751;28;102112;-65
2022/06/24 09:31:42;;;;;;;3.20;1.27;;;;;;;25.06;100.00;95768.63;5029674;28;105633;-65
2022/06/24 09:34:12;;;;;;;3.57;1.60;;;;;;;25.12;100.00;95761.00;5030294;28;102056;-65
2022/06/24 09:36:41;;;;;;;2.93;1.27;;;;;;;25.78;100.00;95765.03;5029987;28;103461;-64
2022/06/24 09:39:11;;;;;;;3.37;1.37;;;;;;;25.69;100.00;95769.16;5031264;28;102619;-64
2022/06/24 09:41:45;;;;;;;2.23;1.07;;;;;;;25.57;100.00;95761.16;5031242;27;101903;-65
2022/06/24 09:44:15;;;;;;;3.77;1.30;;;;;;;25.57;100.00;95752.97;5031403;28;102643;-65
2022/06/24 09:46:43;;;;;;;2.03;1.37;;;;;;;25.90;100.00;95755.91;5030306;28;103033;-64
2022/06/24 09:49:12;;;;;;;3.43;1.30;;;;;;;26.67;98.17;95754.50;5031573;28;102148;-64
2022/06/24 09:51:41;;;;;;;4.20;1.20;;;;;;;26.50;79.83;95755.81;5034085;28;102580;-65
2022/06/24 09:54:10;;;;;;;2.13;1.00;;;;;;;26.39;100.00;95754.06;5031317;28;101998;-64
2022/06/24 09:56:39;;;;;;;2.73;1.40;;;;;;;26.47;100.00;95750.28;5030904;28;102587;-64
2022/06/24 10:01:54;;;;;;;3.80;1.47;;;;;;;26.12;86.06;95744.25;5030870;27;102032;-65
2022/06/24 10:04:22;;;;;;;3.03;1.07;;;;;;;27.44;95.41;95730.97;5030898;27;102363;-64
2022/06/24 10:06:51;;;;;;;4.00;1.33;;;;;;;26.46;80.52;95735.06;5029056;28;105813;-64
2022/06/24 10:09:25;;;;;;;4.13;1.20;;;;;;;26.47;75.37;95729.25;5030890;28;101859;-64
2022/06/24 10:11:55;;;;;;;3.40;1.33;;;;;;;27.18;86.66;95726.38;5030866;28;102330;-64
2022/06/24 10:14:23;;;;;;;2.17;1.10;;;;;;;27.97;85.15;95710.47;5032110;28;101859;-65
2022/06/24 10:16:53;;;;;;;2.70;1.10;;;;;;;28.01;68.18;95714.81;5029598;28;105176;-64
2022/06/24 10:19:24;;;;;;;3.87;1.30;;;;;;;27.63;79.11;95701.53;5030223;27;102566;-65
2022/06/24 10:21:52;;;;;;;1.90;1.10;;;;;;;28.07;74.60;95701.59;5029433;28;101856;-65
2022/06/24 10:24:19;;;;;;;3.23;1.37;;;;;;;28.04;73.83;95692.19;5030709;28;102357;-65
2022/06/24 10:26:48;;;;;;;1.73;1.00;;;;;;;29.10;67.05;95694.47;5028729;28;106930;-64
2022/06/24 10:29:30;;;;;;;4.73;1.30;;;;;;;29.55;60.37;95684.88;5029422;28;101825;-64
2022/06/24 10:32:09;;;;;;;2.73;0.90;;;;;;;30.13;49.22;95679.88;5030926;28;102375;-64
2022/06/24 10:34:47;;;;;;;5.23;1.13;;;;;;;30.14;46.38;95682.22;5033268;28;104733;-64
2022/06/24 10:37:28;;;;;;;2.67;1.00;;;;;;;28.97;43.58;95687.78;5029841;27;102512;-64
2022/06/24 10:39:57;;;;;;;1.07;0.90;;;;;;;28.23;42.10;95689.19;5030125;28;101761;-65
2022/06/24 10:42:25;;;;;;;2.10;0.73;;;;;;;28.38;54.57;95681.94;5030047;28;101842;-65
2022/06/24 10:45:00;;;;;;;4.30;1.00;;;;;;;27.34;49.97;95677.03;5030425;27;102495;-65
2022/06/24 10:47:46;;;;;;;3.50;1.73;;;;;;;26.79;53.56;95675.97;5030019;28;102574;-64
2022/06/24 10:50:18;;;;;;;2.67;1.30;;;;;;;26.94;55.35;95674.19;5029393;28;102341;-65
2022/06/24 10:53:00;;;;;;;1.67;1.10;;;;;;;27.98;53.50;95673.78;5027320;28;105186;-65
2022/06/24 10:55:39;;;;;;;2.70;1.40;;;;;;;28.67;55.87;95665.28;5028689;27;103088;-64
2022/06/24 10:58:09;;;;;;;2.63;1.03;;;;;;;28.94;50.55;95660.34;5032696;28;102247;-64
2022/06/24 11:00:53;;;;;;;2.37;0.90;;;;;;;28.44;52.66;95655.78;5028663;28;102548;-65
2022/06/24 11:03:39;;;;;;;2.80;1.03;;;;;;;28.65;44.86;95650.41;5027109;28;102141;-64
2022/06/24 11:06:11;;;;;;;3.03;1.10;;;;;;;27.95;45.63;95649.94;5028766;28;102390;-64
2022/06/24 11:08:39;;;;;;;2.17;0.97;;;;;;;27.91;57.22;95639.00;5028297;27;103171;-65
2022/06/24 11:11:07;;;;;;;2.47;1.17;;;;;;;27.60;60.27;95638.66;5027804;28;102123;-64
2022/06/24 11:13:34;;;;;;;2.47;1.33;;;;;;;28.36;66.39;95643.19;5029567;27;102887;-64
2022/06/24 11:16:01;;;;;;;3.93;1.00;;;;;;;28.69;54.48;95640.28;5031317;28;102866;-64
2022/06/24 11:18:32;;;;;;;3.13;1.10;;;;;;;29.26;60.99;95634.66;5032514;28;101871;-64
2022/06/24 11:21:01;;;;;;;1.77;1.30;;;;;;;28.64;55.53;95637.91;5034892;28;103943;-64
2022/06/24 11:23:29;;;;;;;3.63;1.10;;;;;;;27.95;57.52;95633.53;5033514;27;101862;-65
2022/06/24 11:26:01;;;;;;;2.83;1.17;;;;;;;28.07;60.21;95625.81;5033430;27;102100;-65
2022/06/24 11:28:30;;;;;;;2.60;1.37;;;;;;;28.64;58.06;95629.69;5031791;28;104424;-65
2022/06/24 11:31:15;;;;;;;4.00;1.10;;;;;;;29.12;57.39;95631.09;5032249;28;101929;-65
2022/06/24 11:33:44;;;;;;;5.37;1.30;;;;;;;28.82;54.57;95625.13;5031937;28;105157;-65
2022/06/24 11:36:14;;;;;;;1.33;0.93;;;;;;;28.26;49.88;95624.75;5032756;28;102598;-64
2022/06/24 11:38:55;;;;;;;2.83;1.10;;;;;;;28.77;52.19;95607.09;5033530;28;101691;-65
2022/06/24 11:41:35;;;;;;;2.80;1.00;;;;;;;28.92;51.78;95605.19;5031912;28;103771;-64
2022/06/24 11:44:02;;;;;;;2.40;0.80;;;;;;;29.02;52.70;95601.72;5036463;28;103114;-64